Time;durP1;ratioP1;P1;durP2;ratioP2;P2;SDS_P1;SDS_P2;PMS_P1;PMS_P2;Temp;Humidity;BMP_temperature;BMP_pressure;BME280_temperature;BME280_humidity;BME280_pressure;Samples;Min_cycle;Max_cycle;Signal;HPM_P1;HPM_P2
2024/03/10 00:02:26;;;;;;;34.38;22.80;;;5.70;99.90;;;;;;5029807;28;20292;-79
2024/03/10 00:04:53;;;;;;;32.67;20.33;;;5.70;99.90;;;;;;5029023;28;20634;-77
2024/03/10 00:07:20;;;;;;;33.30;21.45;;;5.60;99.90;;;;;;5034135;28;20207;-77
2024/03/10 00:09:49;;;;;;;35.42;21.80;;;5.60;99.90;;;;;;5028220;28;20213;-78
2024/03/10 00:12:16;;;;;;;35.95;22.00;;;5.70;99.90;;;;;;5025678;28;20666;-77
2024/03/10 00:14:43;;;;;;;33.08;22.60;;;5.60;99.90;;;;;;5026587;28;20229;-78
2024/03/10 00:17:10;;;;;;;34.38;23.00;;;5.70;99.90;;;;;;5033715;28;20239;-77
2024/03/10 00:19:39;;;;;;;29.95;20.92;;;5.70;99.90;;;;;;5034138;28;20519;-79
2024/03/10 00:22:06;;;;;;;36.92;22.45;;;5.60;99.90;;;;;;5029447;28;20251;-78
2024/03/10 00:24:33;;;;;;;34.40;22.00;;;5.70;99.90;;;;;;5033672;28;20217;-78
2024/03/10 00:27:00;;;;;;;37.30;21.90;;;5.60;99.90;;;;;;5027013;28;20667;-79
2024/03/10 00:29:27;;;;;;;33.58;21.63;;;5.60;99.90;;;;;;5037518;28;20228;-78
2024/03/10 00:31:54;;;;;;;35.22;22.75;;;5.60;99.90;;;;;;5033359;28;20712;-77
2024/03/10 00:34:21;;;;;;;32.97;20.73;;;5.60;99.90;;;;;;5032955;28;20224;-77
2024/03/10 00:36:52;;;;;;;28.55;19.13;;;5.70;99.90;;;;;;5041568;28;20215;-78
2024/03/10 00:39:19;;;;;;;43.35;24.67;;;5.60;99.90;;;;;;5036966;28;20208;-77
2024/03/10 00:41:46;;;;;;;32.85;21.77;;;5.60;99.90;;;;;;5025335;28;20329;-77
2024/03/10 00:44:13;;;;;;;36.53;22.90;;;5.60;99.90;;;;;;5029464;28;20586;-77
2024/03/10 00:46:40;;;;;;;33.10;22.63;;;5.60;99.90;;;;;;5019660;28;20258;-78
2024/03/10 00:49:07;;;;;;;34.58;22.45;;;5.50;99.90;;;;;;5022855;28;20663;-78
2024/03/10 00:51:35;;;;;;;36.75;22.73;;;5.50;99.90;;;;;;5031499;28;20562;-77
2024/03/10 00:54:03;;;;;;;36.15;23.48;;;5.50;99.90;;;;;;5033678;28;20221;-77
2024/03/10 00:56:30;;;;;;;34.65;21.83;;;5.40;99.90;;;;;;5023306;28;20205;-77
2024/03/10 00:58:58;;;;;;;32.00;20.60;;;5.40;99.90;;;;;;5027757;28;20271;-78
2024/03/10 01:01:25;;;;;;;33.58;23.42;;;5.40;99.90;;;;;;5026986;28;20240;-78
2024/03/10 01:03:53;;;;;;;34.80;23.10;;;5.40;99.90;;;;;;5033400;28;20296;-78
2024/03/10 01:06:23;;;;;;;43.28;24.30;;;5.40;99.90;;;;;;5027818;28;20212;-78
2024/03/10 01:08:50;;;;;;;37.58;23.25;;;5.30;99.90;;;;;;5020205;28;20639;-78
2024/03/10 01:11:19;;;;;;;35.90;23.73;;;5.30;99.90;;;;;;5033661;28;20204;-77
2024/03/10 01:13:46;;;;;;;34.25;22.10;;;5.20;99.90;;;;;;5028084;28;20220;-77
2024/03/10 01:16:14;;;;;;;41.15;24.38;;;5.20;99.90;;;;;;5034751;28;20200;-77
2024/03/10 01:18:41;;;;;;;39.92;24.23;;;5.20;99.90;;;;;;5034263;28;20556;-77
2024/03/10 01:21:09;;;;;;;37.17;24.15;;;5.30;99.90;;;;;;5033666;28;20266;-76
2024/03/10 01:23:36;;;;;;;38.35;25.13;;;5.30;99.90;;;;;;5031136;28;20229;-77
2024/03/10 01:26:05;;;;;;;36.13;23.05;;;5.30;99.90;;;;;;5030721;28;20193;-77
2024/03/10 01:28:34;;;;;;;42.70;27.70;;;5.30;99.90;;;;;;5029784;28;20581;-77
2024/03/10 01:31:01;;;;;;;41.13;25.45;;;5.30;99.90;;;;;;5025160;28;20200;-78
2024/03/10 01:33:28;;;;;;;42.65;28.08;;;5.20;99.90;;;;;;5032531;28;20228;-78
2024/03/10 01:35:55;;;;;;;39.17;25.75;;;5.20;99.90;;;;;;5023650;28;20203;-78
2024/03/10 01:38:23;;;;;;;41.78;26.13;;;5.20;99.90;;;;;;5019243;28;20197;-78
2024/03/10 01:40:50;;;;;;;48.50;27.75;;;5.20;99.90;;;;;;5029000;28;20538;-77
2024/03/10 01:43:18;;;;;;;42.00;25.30;;;5.20;99.90;;;;;;5031728;28;20220;-77
2024/03/10 01:45:49;;;;;;;41.10;25.80;;;5.20;99.90;;;;;;5031281;28;20200;-78
2024/03/10 01:48:16;;;;;;;37.25;25.23;;;5.30;99.90;;;;;;5030864;28;20209;-76
2024/03/10 01:50:44;;;;;;;37.72;24.52;;;5.20;99.90;;;;;;5033501;28;20192;-76
2024/03/10 01:53:11;;;;;;;41.60;26.00;;;5.20;99.90;;;;;;5039024;28;20593;-77
2024/03/10 01:55:38;;;;;;;37.60;24.50;;;5.20;99.90;;;;;;5033163;28;20211;-77
2024/03/10 01:58:05;;;;;;;37.58;24.13;;;5.20;99.90;;;;;;5032433;28;20294;-78
2024/03/10 02:00:36;;;;;;;37.08;25.08;;;5.20;99.90;;;;;;5020579;28;20215;-77
2024/03/10 02:03:05;;;;;;;36.55;25.27;;;5.20;99.90;;;;;;5032293;28;20578;-78
2024/03/10 02:05:32;;;;;;;42.25;28.60;;;5.20;99.90;;;;;;5029460;28;20212;-76
2024/03/10 02:08:00;;;;;;;38.95;26.65;;;5.20;99.90;;;;;;5023926;28;20298;-77
2024/03/10 02:10:27;;;;;;;43.15;28.02;;;5.20;99.90;;;;;;5022929;28;20274;-78
2024/03/10 02:12:53;;;;;;;44.25;29.13;;;5.20;99.90;;;;;;5032722;28;20227;-78
2024/03/10 02:15:22;;;;;;;40.28;26.23;;;5.20;99.90;;;;;;5035961;28;20750;-77
2024/03/10 02:17:50;;;;;;;42.92;27.77;;;5.20;99.90;;;;;;5034931;28;20537;-78
2024/03/10 02:20:20;;;;;;;44.75;26.83;;;5.10;99.90;;;;;;5034282;28;20642;-76
2024/03/10 02:22:49;;;;;;;49.10;27.60;;;5.00;99.90;;;;;;5033645;28;20300;-76
2024/03/10 02:25:17;;;;;;;44.60;29.05;;;5.10;99.90;;;;;;5036850;28;20545;-76
2024/03/10 02:27:49;;;;;;;38.22;25.05;;;5.10;99.90;;;;;;5037641;28;20255;-77
2024/03/10 02:30:29;;;;;;;46.78;28.80;;;5.10;99.90;;;;;;5042021;28;20232;-76
2024/03/10 02:49:27;;;;;;;48.25;29.15;;;5.00;99.90;;;;;;5036371;28;20238;-77
2024/03/10 02:51:54;;;;;;;45.35;27.50;;;5.00;99.90;;;;;;5036541;28;20196;-77
2024/03/10 02:54:21;;;;;;;45.13;28.85;;;5.00;99.90;;;;;;5029116;28;20228;-77
2024/03/10 02:56:48;;;;;;;47.45;28.02;;;5.00;99.90;;;;;;5033453;28;20239;-78
2024/03/10 02:59:31;;;;;;;54.15;29.20;;;5.00;99.90;;;;;;5032630;28;20201;-78
2024/03/10 03:02:18;;;;;;;54.50;31.45;;;4.90;99.90;;;;;;5034736;28;20686;-76
2024/03/10 03:04:46;;;;;;;44.40;30.60;;;4.90;99.90;;;;;;5036846;28;20225;-78
2024/03/10 03:07:17;;;;;;;47.88;32.95;;;4.90;99.90;;;;;;5028898;28;20205;-76
2024/03/10 03:09:45;;;;;;;49.33;32.63;;;4.90;99.90;;;;;;5033440;28;20336;-78
2024/03/10 03:12:12;;;;;;;46.25;28.33;;;5.00;99.90;;;;;;5030495;28;20258;-77
2024/03/10 03:14:40;;;;;;;46.83;29.27;;;4.90;99.90;;;;;;5036069;28;20251;-77
2024/03/10 03:17:10;;;;;;;50.15;29.85;;;5.00;99.90;;;;;;5024550;28;20217;-77
2024/03/10 03:19:37;;;;;;;54.65;29.63;;;4.90;99.90;;;;;;5026420;28;20254;-78
2024/03/10 03:22:04;;;;;;;47.97;29.65;;;4.90;99.90;;;;;;5034857;28;20246;-77
2024/03/10 03:24:31;;;;;;;43.30;29.40;;;4.90;99.90;;;;;;5031292;28;20299;-80
2024/03/10 03:26:58;;;;;;;54.60;31.00;;;4.90;99.90;;;;;;5035813;28;20279;-77
2024/03/10 03:29:26;;;;;;;50.13;29.38;;;4.80;99.90;;;;;;5036534;28;20753;-77
2024/03/10 03:31:55;;;;;;;53.80;32.50;;;4.80;99.90;;;;;;5036770;28;20211;-77
2024/03/10 03:34:22;;;;;;;50.58;30.85;;;4.80;99.90;;;;;;5030486;28;20247;-76
2024/03/10 03:36:49;;;;;;;46.40;30.73;;;4.80;99.90;;;;;;5035111;28;20262;-77
2024/03/10 03:39:16;;;;;;;50.72;31.08;;;4.80;99.90;;;;;;5024555;28;20292;-78
2024/03/10 03:42:13;;;;;;;49.25;30.67;;;4.80;99.90;;;;;;5089970;22;20271;-82
2024/03/10 04:01:59;;;;;;;48.15;28.80;;;4.80;99.90;;;;;;5041015;28;20200;-82
2024/03/10 04:41:04;;;;;;;59.95;35.33;;;4.60;99.90;;;;;;4916840;29;20212;-82
2024/03/10 04:47:12;;;;;;;57.72;31.77;;;4.60;99.90;;;;;;4988238;22;20241;-77
2024/03/10 04:49:40;;;;;;;55.95;32.63;;;4.50;99.90;;;;;;5069326;28;20203;-77
2024/03/10 04:52:08;;;;;;;53.20;30.48;;;4.50;99.90;;;;;;5056399;28;20561;-78
2024/03/10 04:54:35;;;;;;;51.50;32.03;;;4.60;99.90;;;;;;5043012;28;20252;-77
2024/03/10 04:57:04;;;;;;;50.90;31.08;;;4.60;99.90;;;;;;5049806;28;20212;-77
2024/03/10 04:59:32;;;;;;;54.97;33.75;;;4.60;99.90;;;;;;5050742;28;20561;-76
2024/03/10 05:01:59;;;;;;;56.45;33.25;;;4.50;99.90;;;;;;5053266;28;20747;-77
2024/03/10 05:04:26;;;;;;;58.75;32.72;;;4.60;99.90;;;;;;5054682;28;20228;-78
2024/03/10 05:06:53;;;;;;;54.40;32.30;;;4.60;99.90;;;;;;5052592;28;20225;-77
2024/03/10 05:09:20;;;;;;;55.42;31.98;;;4.60;99.90;;;;;;5052046;28;20193;-77
2024/03/10 05:11:49;;;;;;;52.30;33.95;;;4.60;99.90;;;;;;5053215;28;20208;-77
2024/03/10 05:14:16;;;;;;;50.28;32.53;;;4.50;99.90;;;;;;5053576;28;20621;-76
2024/03/10 05:16:44;;;;;;;52.65;31.17;;;4.50;99.90;;;;;;5051681;28;20203;-77
2024/03/10 05:19:11;;;;;;;49.00;31.95;;;4.50;99.90;;;;;;5044054;28;20605;-76
2024/03/10 05:21:38;;;;;;;60.42;35.95;;;4.50;99.90;;;;;;5051272;28;20412;-77
2024/03/10 05:24:07;;;;;;;57.17;31.85;;;4.50;99.90;;;;;;5045858;28;20231;-77
2024/03/10 05:26:34;;;;;;;53.63;31.95;;;4.50;99.90;;;;;;5050439;28;20355;-77
2024/03/10 05:29:01;;;;;;;50.42;32.13;;;4.50;99.90;;;;;;5057274;28;20207;-76
2024/03/10 05:31:29;;;;;;;49.22;32.00;;;4.50;99.90;;;;;;5057065;28;20754;-77
2024/03/10 05:33:59;;;;;;;51.25;32.58;;;4.50;99.90;;;;;;5046927;28;20274;-77
2024/03/10 05:36:26;;;;;;;54.95;32.90;;;4.50;99.90;;;;;;5053813;28;20208;-78
2024/03/10 05:38:54;;;;;;;49.13;31.55;;;4.50;99.90;;;;;;5053191;28;20715;-77
2024/03/10 05:41:21;;;;;;;51.05;33.25;;;4.50;99.90;;;;;;5053181;28;20605;-76
2024/03/10 05:43:48;;;;;;;56.17;35.42;;;4.50;99.90;;;;;;5052209;28;20228;-76
2024/03/10 05:46:15;;;;;;;50.58;33.13;;;4.50;99.90;;;;;;5053212;28;20188;-77
2024/03/10 05:48:42;;;;;;;50.67;32.22;;;4.60;99.90;;;;;;5054965;28;20596;-78
2024/03/10 05:51:13;;;;;;;47.92;33.05;;;4.60;99.90;;;;;;5049110;28;20217;-76
2024/03/10 05:53:40;;;;;;;52.72;32.17;;;4.60;99.90;;;;;;5049145;28;20281;-77
2024/03/10 05:56:08;;;;;;;49.38;32.60;;;4.60;99.90;;;;;;5055646;28;20246;-76
2024/03/10 05:58:35;;;;;;;59.88;34.60;;;4.60;99.90;;;;;;5055813;28;20206;-76
2024/03/10 06:01:02;;;;;;;51.08;33.55;;;4.60;99.90;;;;;;5049260;28;20216;-78
2024/03/10 06:03:29;;;;;;;51.13;32.10;;;4.60;99.90;;;;;;5053617;28;20311;-77
2024/03/10 06:05:57;;;;;;;51.88;31.05;;;4.70;99.90;;;;;;5056977;28;20204;-79
2024/03/10 06:08:25;;;;;;;44.80;28.23;;;4.70;99.90;;;;;;5054763;28;20662;-77
2024/03/10 06:10:53;;;;;;;49.45;29.35;;;4.70;99.90;;;;;;5052876;28;20650;-77
2024/03/10 06:13:21;;;;;;;47.40;30.42;;;4.70;99.90;;;;;;5052861;28;20583;-77
2024/03/10 06:15:48;;;;;;;61.95;33.38;;;4.70;99.90;;;;;;5053667;28;20236;-76
2024/03/10 06:18:21;;;;;;;49.17;31.98;;;4.80;99.90;;;;;;5043942;28;20222;-77
2024/03/10 06:26:21;;;;;;;50.40;30.92;;;5.10;99.90;;;;;;5045338;28;20342;-76
2024/03/10 06:28:49;;;;;;;46.63;30.00;;;5.00;99.90;;;;;;5050117;28;20200;-76
2024/03/10 06:31:17;;;;;;;41.40;27.67;;;5.10;99.90;;;;;;5054198;28;20205;-78
2024/03/10 06:33:44;;;;;;;45.28;29.88;;;5.20;99.90;;;;;;5050901;28;20578;-77
2024/03/10 06:36:13;;;;;;;49.88;29.85;;;5.30;99.90;;;;;;5046217;28;20252;-76
2024/03/10 06:38:42;;;;;;;47.60;31.20;;;5.30;99.90;;;;;;5052038;28;20208;-77
2024/03/10 06:41:10;;;;;;;43.55;26.95;;;5.40;99.90;;;;;;5050689;28;20204;-76
2024/03/10 06:43:37;;;;;;;51.42;31.17;;;5.50;99.90;;;;;;5049780;28;20277;-77
2024/03/10 06:46:05;;;;;;;49.58;31.42;;;5.60;99.90;;;;;;5050109;28;20197;-76
2024/03/10 06:48:32;;;;;;;44.80;29.38;;;5.70;99.90;;;;;;5051734;28;20270;-76
2024/03/10 06:50:59;;;;;;;42.95;27.83;;;5.90;99.90;;;;;;5050794;28;20678;-75
2024/03/10 06:53:27;;;;;;;41.00;27.17;;;6.10;99.90;;;;;;5051772;28;20585;-77
2024/03/10 06:55:58;;;;;;;39.35;28.52;;;6.30;99.90;;;;;;5054538;28;20277;-77
2024/03/10 06:58:24;;;;;;;44.47;26.95;;;6.80;99.90;;;;;;5048540;28;20200;-78
2024/03/10 07:00:52;;;;;;;40.88;27.27;;;7.40;99.90;;;;;;5055851;28;20227;-77
2024/03/10 07:03:20;;;;;;;38.97;26.63;;;7.90;99.90;;;;;;5048940;28;20242;-76
2024/03/10 07:05:47;;;;;;;39.47;29.05;;;8.50;99.90;;;;;;5055519;28;20650;-76
2024/03/10 07:08:15;;;;;;;28.60;23.50;;;9.10;99.90;;;;;;5057886;28;20215;-75
2024/03/10 07:10:43;;;;;;;35.75;25.33;;;9.70;99.90;;;;;;5055839;28;20231;-75
2024/03/10 07:13:11;;;;;;;35.60;24.00;;;10.00;99.90;;;;;;5052101;28;20763;-76
2024/03/10 07:15:38;;;;;;;35.20;24.02;;;10.20;99.90;;;;;;5045473;28;20214;-76
2024/03/10 07:18:06;;;;;;;35.38;24.98;;;10.50;99.90;;;;;;5050699;28;20232;-78
2024/03/10 07:20:33;;;;;;;36.53;23.98;;;10.80;99.90;;;;;;5053091;28;20250;-77
2024/03/10 07:23:00;;;;;;;31.58;25.02;;;11.10;99.90;;;;;;5054369;28;20224;-74
2024/03/10 07:25:29;;;;;;;34.97;25.95;;;11.50;99.90;;;;;;5055660;28;20203;-75
2024/03/10 07:27:56;;;;;;;33.05;24.42;;;11.50;99.90;;;;;;5053494;28;20701;-76
2024/03/10 07:30:24;;;;;;;33.28;24.23;;;11.80;99.90;;;;;;5054679;28;20200;-74
2024/03/10 07:32:51;;;;;;;34.55;26.33;;;12.00;99.90;;;;;;5052989;28;20229;-75
2024/03/10 07:35:18;;;;;;;31.35;24.70;;;12.00;99.90;;;;;;5053873;28;20211;-74
2024/03/10 07:37:46;;;;;;;33.53;24.17;;;12.30;99.90;;;;;;5054503;28;20551;-75
2024/03/10 07:40:17;;;;;;;35.70;25.70;;;12.60;99.90;;;;;;5054599;28;20199;-76
2024/03/10 07:42:45;;;;;;;33.83;25.33;;;12.80;99.90;;;;;;5056089;28;20236;-75
2024/03/10 07:45:12;;;;;;;36.35;26.00;;;12.90;99.40;;;;;;5055192;28;20200;-75
2024/03/10 07:47:42;;;;;;;34.60;26.52;;;12.80;99.30;;;;;;5055476;28;20216;-77
2024/03/10 07:50:11;;;;;;;37.20;26.75;;;13.10;99.10;;;;;;5056935;28;20306;-75
2024/03/10 07:52:39;;;;;;;34.60;24.90;;;12.80;98.80;;;;;;5053361;28;20196;-75
2024/03/10 07:55:09;;;;;;;34.97;25.38;;;12.90;98.60;;;;;;5053893;28;20220;-75
2024/03/10 07:57:39;;;;;;;31.70;24.23;;;12.80;98.80;;;;;;5053156;28;20280;-76
2024/03/10 08:00:11;;;;;;;29.38;21.45;;;12.80;99.20;;;;;;5053200;28;20239;-75
2024/03/10 08:02:41;;;;;;;32.58;24.45;;;12.90;99.10;;;;;;5052106;28;20291;-75
2024/03/10 08:05:10;;;;;;;32.53;24.63;;;13.10;98.60;;;;;;5053328;28;20219;-75
2024/03/10 08:07:39;;;;;;;31.38;23.85;;;12.50;98.70;;;;;;5053330;28;20289;-76
2024/03/10 08:10:08;;;;;;;35.08;25.70;;;12.60;99.10;;;;;;5052598;28;20299;-75
2024/03/10 08:12:35;;;;;;;37.92;25.63;;;12.40;99.50;;;;;;5053943;28;20710;-73
2024/03/10 08:15:03;;;;;;;30.67;24.20;;;12.30;99.40;;;;;;5054881;28;20199;-72
2024/03/10 08:17:30;;;;;;;36.35;25.92;;;12.00;99.90;;;;;;5049498;28;20215;-74
2024/03/10 08:19:58;;;;;;;33.00;24.45;;;12.00;99.90;;;;;;5053266;28;20205;-75
2024/03/10 08:22:26;;;;;;;32.45;23.95;;;12.00;99.90;;;;;;5047711;28;20204;-75
2024/03/10 08:24:53;;;;;;;38.72;26.70;;;11.80;99.90;;;;;;5053455;28;20311;-75
2024/03/10 08:27:21;;;;;;;35.30;26.35;;;11.50;99.90;;;;;;5054809;28;20236;-73
2024/03/10 08:29:48;;;;;;;41.28;29.92;;;11.20;99.90;;;;;;5055706;28;20254;-74
2024/03/10 08:32:16;;;;;;;36.25;26.00;;;11.00;99.90;;;;;;5053083;28;20606;-74
2024/03/10 08:34:43;;;;;;;35.90;25.15;;;10.90;99.90;;;;;;5053736;28;20224;-78
2024/03/10 08:37:14;;;;;;;36.78;25.58;;;11.00;99.90;;;;;;5052115;28;20584;-74
2024/03/10 08:39:41;;;;;;;32.30;25.35;;;11.10;99.90;;;;;;5053249;28;20250;-72
2024/03/10 08:42:10;;;;;;;34.63;23.45;;;11.50;99.90;;;;;;5052494;28;20204;-72
2024/03/10 08:44:36;;;;;;;33.25;24.30;;;12.00;99.90;;;;;;5048769;28;20223;-73
2024/03/10 08:47:04;;;;;;;28.88;23.50;;;12.40;99.90;;;;;;5044299;28;20236;-74
2024/03/10 08:49:31;;;;;;;30.67;22.95;;;12.70;99.90;;;;;;5052469;28;20204;-74
2024/03/10 08:51:58;;;;;;;38.95;27.67;;;12.60;99.90;;;;;;5052005;28;20290;-72
2024/03/10 08:54:29;;;;;;;34.28;24.55;;;12.60;99.90;;;;;;5051449;28;20559;-75
2024/03/10 08:56:56;;;;;;;34.30;25.98;;;12.70;99.90;;;;;;5051175;28;20227;-76
2024/03/10 08:59:23;;;;;;;36.25;25.13;;;13.00;99.90;;;;;;5052554;28;20238;-75
2024/03/10 09:01:51;;;;;;;33.13;25.00;;;13.20;99.50;;;;;;5051086;28;20200;-74
2024/03/10 09:04:18;;;;;;;29.27;23.95;;;12.90;99.20;;;;;;5050062;28;20263;-76
2024/03/10 09:06:45;;;;;;;31.25;23.10;;;12.70;99.90;;;;;;5050631;28;20192;-74
2024/03/10 09:09:14;;;;;;;28.75;23.17;;;12.60;99.90;;;;;;5053674;28;20196;-75
2024/03/10 09:11:42;;;;;;;32.25;25.17;;;12.60;99.90;;;;;;5052525;28;20311;-75
2024/03/10 09:14:09;;;;;;;31.67;24.10;;;12.50;99.90;;;;;;5046519;28;20228;-74
2024/03/10 09:16:36;;;;;;;36.70;26.50;;;12.70;99.90;;;;;;5051645;28;20300;-75
2024/03/10 09:19:05;;;;;;;32.90;25.15;;;12.70;99.90;;;;;;5052282;28;20261;-75
2024/03/10 09:21:33;;;;;;;31.48;25.75;;;12.70;99.90;;;;;;5051870;28;20211;-75
2024/03/10 09:24:00;;;;;;;32.28;23.48;;;12.80;99.90;;;;;;5051729;28;20251;-74
2024/03/10 09:26:28;;;;;;;32.92;26.40;;;12.70;99.90;;;;;;5050724;28;20253;-74
2024/03/10 09:28:57;;;;;;;32.88;25.95;;;12.70;99.90;;;;;;5050758;28;20776;-77
2024/03/10 09:31:24;;;;;;;37.50;27.70;;;12.70;99.90;;;;;;5052014;28;20200;-76
2024/03/10 09:33:52;;;;;;;31.23;26.17;;;12.40;99.90;;;;;;5046936;28;20774;-73
2024/03/10 09:36:19;;;;;;;37.28;27.00;;;12.20;99.90;;;;;;5040569;28;20303;-76
2024/03/10 09:38:46;;;;;;;30.20;23.23;;;12.10;99.90;;;;;;5051748;28;20233;-74
2024/03/10 10:09:13;;;;;;;34.88;24.70;;;12.80;99.90;;;;;;4915279;29;20274;-84
2024/03/10 10:12:13;;;;;;;35.70;26.55;;;12.60;99.90;;;;;;4903360;29;20224;-82
2024/03/10 10:21:35;;;;;;;33.20;24.88;;;12.40;99.90;;;;;;4903170;29;20225;-84
2024/03/10 10:24:27;;;;;;;30.17;25.08;;;12.30;99.90;;;;;;4903716;29;20197;-85
2024/03/10 10:43:06;;;;;;;30.48;24.35;;;12.60;99.90;;;;;;4919565;29;20248;-80
2024/03/10 10:49:41;;;;;;;32.03;24.70;;;12.70;99.90;;;;;;4949212;29;20235;-82
2024/03/10 10:52:52;;;;;;;37.00;24.38;;;12.80;99.90;;;;;;4954122;29;20219;-81
2024/03/10 10:55:39;;;;;;;28.17;24.88;;;12.90;99.90;;;;;;4986148;28;20213;-81
2024/03/10 10:58:11;;;;;;;29.00;23.60;;;13.20;99.90;;;;;;5005501;28;20236;-83
2024/03/10 11:07:44;;;;;;;28.33;22.50;;;13.90;99.90;;;;;;5000959;28;20244;-81
2024/03/10 11:11:01;;;;;;;28.10;22.05;;;14.10;99.90;;;;;;5005384;28;20265;-80
2024/03/10 11:13:31;;;;;;;26.38;22.48;;;14.30;99.60;;;;;;5004579;28;20209;-80
2024/03/10 11:16:17;;;;;;;30.92;23.95;;;14.10;99.40;;;;;;5004688;28;20221;-80
2024/03/10 11:18:52;;;;;;;27.88;21.58;;;13.70;99.90;;;;;;5019708;28;20252;-79
2024/03/10 11:21:29;;;;;;;23.55;21.00;;;13.60;99.90;;;;;;5030648;28;20205;-80
2024/03/10 11:29:41;;;;;;;29.63;23.70;;;13.50;99.90;;;;;;5027818;28;20238;-79
2024/03/10 11:32:32;;;;;;;30.45;24.02;;;13.40;99.90;;;;;;5035492;28;20686;-80
2024/03/10 11:35:13;;;;;;;33.05;24.25;;;13.30;99.90;;;;;;5037508;28;20239;-81
2024/03/10 11:38:01;;;;;;;29.27;23.10;;;13.50;99.90;;;;;;5046686;28;20622;-81
2024/03/10 11:41:18;;;;;;;25.40;21.40;;;13.50;99.90;;;;;;5037364;28;20227;-80
2024/03/10 11:44:28;;;;;;;22.33;18.92;;;13.50;99.90;;;;;;5032194;28;20578;-81
2024/03/10 11:50:04;;;;;;;27.13;21.35;;;13.00;99.90;;;;;;5041673;28;20200;-80
2024/03/10 11:52:40;;;;;;;24.70;19.75;;;13.20;99.90;;;;;;5047087;28;20287;-80
2024/03/10 11:55:14;;;;;;;29.02;22.85;;;13.20;99.90;;;;;;5028588;28;20304;-65
2024/03/10 11:57:41;;;;;;;26.40;19.88;;;13.20;99.90;;;;;;5023189;28;20316;-63
2024/03/10 12:00:14;;;;;;;22.70;19.92;;;13.20;99.90;;;;;;5024584;28;20305;-64
2024/03/10 12:02:42;;;;;;;24.00;20.98;;;13.20;99.90;;;;;;5031035;28;20201;-64
2024/03/10 12:05:11;;;;;;;24.75;20.13;;;13.10;99.90;;;;;;5029606;28;20247;-65
2024/03/10 12:07:40;;;;;;;22.92;19.20;;;13.20;99.90;;;;;;5030838;28;20231;-64
2024/03/10 12:10:09;;;;;;;25.70;19.95;;;13.30;99.90;;;;;;5029603;28;20204;-65
2024/03/10 12:12:38;;;;;;;28.08;22.33;;;13.30;99.90;;;;;;5033067;28;20549;-66
2024/03/10 12:15:16;;;;;;;24.52;19.63;;;13.40;99.90;;;;;;5031273;28;20643;-66
2024/03/10 12:17:43;;;;;;;25.20;21.00;;;13.40;99.90;;;;;;5029676;28;20769;-64
2024/03/10 12:20:12;;;;;;;26.27;21.35;;;13.50;99.90;;;;;;5027097;28;20237;-66
2024/03/10 12:22:40;;;;;;;25.00;19.60;;;13.50;99.90;;;;;;5028225;28;20201;-66
2024/03/10 12:25:09;;;;;;;23.13;19.58;;;13.60;99.90;;;;;;5027749;28;20689;-66
2024/03/10 12:27:38;;;;;;;23.05;19.33;;;13.50;99.90;;;;;;5027264;28;20217;-67
2024/03/10 12:30:09;;;;;;;26.90;21.05;;;13.50;99.90;;;;;;5028017;28;20205;-69
2024/03/10 12:32:43;;;;;;;26.85;21.23;;;13.50;99.90;;;;;;5033418;28;20213;-66
2024/03/10 12:35:10;;;;;;;26.25;21.70;;;13.30;99.90;;;;;;5029579;28;20240;-65
2024/03/10 12:37:40;;;;;;;26.73;22.92;;;13.40;99.90;;;;;;5027096;28;20225;-65
2024/03/10 12:40:08;;;;;;;26.48;19.90;;;13.30;99.90;;;;;;5029857;28;20675;-66
2024/03/10 12:42:35;;;;;;;24.30;20.23;;;13.20;99.90;;;;;;5034200;28;20205;-65
2024/03/10 12:45:03;;;;;;;22.55;18.48;;;13.20;99.90;;;;;;5029255;28;20307;-66
2024/03/10 12:47:30;;;;;;;26.13;20.48;;;13.10;99.90;;;;;;5030866;28;20660;-65
2024/03/10 12:49:59;;;;;;;24.42;20.05;;;13.10;99.90;;;;;;5032889;28;20628;-66
2024/03/10 12:52:26;;;;;;;23.05;19.00;;;13.20;99.90;;;;;;5029983;28;20237;-67
2024/03/10 12:54:52;;;;;;;23.17;19.50;;;13.30;99.90;;;;;;5031135;28;20232;-65
2024/03/10 12:57:21;;;;;;;26.48;21.65;;;13.40;99.90;;;;;;5027282;28;20268;-66
2024/03/10 12:59:48;;;;;;;28.23;21.20;;;13.60;99.90;;;;;;5028513;28;20209;-66
2024/03/10 13:02:15;;;;;;;26.45;21.42;;;13.70;99.90;;;;;;5034076;28;20267;-67
2024/03/10 13:04:42;;;;;;;26.58;21.05;;;13.80;99.90;;;;;;5032182;28;20307;-66
2024/03/10 13:07:10;;;;;;;24.92;20.67;;;13.70;99.90;;;;;;5031544;28;20224;-66
2024/03/10 13:09:38;;;;;;;25.33;19.90;;;13.70;99.70;;;;;;5031027;28;20533;-67
2024/03/10 13:12:05;;;;;;;24.38;19.48;;;13.80;99.70;;;;;;5034915;28;20207;-66
2024/03/10 13:14:32;;;;;;;28.60;19.90;;;13.80;99.50;;;;;;5027125;28;20312;-65
2024/03/10 13:16:59;;;;;;;23.50;19.15;;;13.80;99.10;;;;;;5030606;28;20225;-66
2024/03/10 13:19:26;;;;;;;22.40;18.13;;;13.60;99.20;;;;;;5031169;28;20295;-66
2024/03/10 13:21:53;;;;;;;21.67;18.13;;;13.60;99.50;;;;;;5023876;28;20196;-66
2024/03/10 13:24:23;;;;;;;25.70;21.52;;;13.50;99.70;;;;;;5027615;28;20300;-65
2024/03/10 13:26:50;;;;;;;27.50;21.95;;;13.50;99.60;;;;;;5024603;28;20201;-65
2024/03/10 13:29:17;;;;;;;29.08;19.33;;;13.40;99.70;;;;;;5027505;28;20719;-65
2024/03/10 13:31:44;;;;;;;26.00;21.83;;;13.30;99.90;;;;;;5028774;28;20208;-65
2024/03/10 13:34:11;;;;;;;25.83;20.08;;;13.30;99.90;;;;;;5035258;28;20255;-66
2024/03/10 13:36:39;;;;;;;26.92;21.80;;;13.50;99.90;;;;;;5038233;28;20240;-66
2024/03/10 13:39:09;;;;;;;27.00;20.85;;;13.50;99.90;;;;;;5027394;28;20208;-66
2024/03/10 13:41:38;;;;;;;25.58;20.73;;;13.70;99.80;;;;;;5027865;28;20567;-66
2024/03/10 13:44:05;;;;;;;25.08;19.35;;;13.60;99.60;;;;;;5029326;28;20270;-66
2024/03/10 13:46:32;;;;;;;28.65;21.50;;;13.60;99.80;;;;;;5037508;28;20232;-64
2024/03/10 13:48:59;;;;;;;24.00;19.02;;;13.60;99.90;;;;;;5038136;28;20311;-66
2024/03/10 13:51:26;;;;;;;25.33;20.45;;;13.70;99.90;;;;;;5038603;28;20200;-66
2024/03/10 13:53:53;;;;;;;24.48;20.27;;;13.70;99.70;;;;;;5042223;28;20205;-66
2024/03/10 13:56:19;;;;;;;26.92;21.45;;;13.70;99.70;;;;;;5038248;28;20235;-66
2024/03/10 13:58:48;;;;;;;26.30;21.98;;;13.70;99.60;;;;;;5039231;28;20251;-66
2024/03/10 14:01:15;;;;;;;24.88;20.63;;;13.70;99.80;;;;;;5040867;28;20345;-66
2024/03/10 14:03:42;;;;;;;29.02;20.73;;;13.80;99.70;;;;;;5045615;28;20214;-66
2024/03/10 14:06:09;;;;;;;24.92;20.00;;;13.80;99.60;;;;;;5039747;28;20232;-66
2024/03/10 14:08:37;;;;;;;28.05;20.45;;;13.70;99.50;;;;;;5041676;28;20263;-66
2024/03/10 14:11:04;;;;;;;31.38;21.45;;;13.70;99.70;;;;;;5041130;28;20379;-66
2024/03/10 14:13:31;;;;;;;23.50;20.83;;;13.70;99.70;;;;;;5038975;28;20641;-65
2024/03/10 14:15:59;;;;;;;28.50;21.40;;;13.60;99.70;;;;;;5035203;28;20232;-64
2024/03/10 14:18:27;;;;;;;28.33;21.50;;;13.50;99.90;;;;;;5035722;28;20229;-64
2024/03/10 14:20:55;;;;;;;28.08;21.70;;;13.50;99.90;;;;;;5028204;28;20201;-65
2024/03/10 14:23:22;;;;;;;27.17;20.65;;;13.50;99.90;;;;;;5037342;28;20196;-66
2024/03/10 14:25:49;;;;;;;26.33;20.05;;;13.50;99.90;;;;;;5029012;28;20197;-66
2024/03/10 14:28:16;;;;;;;30.52;22.55;;;13.70;99.90;;;;;;5035848;28;20224;-65
2024/03/10 14:30:43;;;;;;;27.90;20.65;;;13.70;99.80;;;;;;5035498;28;20820;-65
2024/03/10 14:33:11;;;;;;;25.13;19.58;;;13.70;99.90;;;;;;5038429;28;20271;-66
2024/03/10 14:35:39;;;;;;;28.13;21.08;;;13.80;99.60;;;;;;5030719;28;20239;-66
2024/03/10 14:38:06;;;;;;;24.95;20.20;;;13.80;99.50;;;;;;5024704;28;20237;-65
2024/03/10 14:40:33;;;;;;;24.15;20.50;;;13.80;99.60;;;;;;5033046;28;20262;-65
2024/03/10 14:43:00;;;;;;;22.30;18.13;;;13.80;99.10;;;;;;5035023;28;20584;-65
2024/03/10 14:45:27;;;;;;;26.98;21.42;;;13.80;99.10;;;;;;5035139;28;20207;-66
2024/03/10 14:47:54;;;;;;;26.00;20.08;;;13.70;99.30;;;;;;5030405;28;20221;-65
2024/03/10 14:50:24;;;;;;;26.88;20.83;;;13.70;99.20;;;;;;5042954;28;20236;-66
2024/03/10 14:52:52;;;;;;;26.88;21.65;;;13.70;99.20;;;;;;5031901;28;20210;-65
2024/03/10 14:55:20;;;;;;;24.08;19.70;;;13.60;99.30;;;;;;5026941;28;20209;-66
2024/03/10 14:57:47;;;;;;;25.77;21.30;;;13.50;99.60;;;;;;5032894;28;20702;-65
2024/03/10 15:00:21;;;;;;;27.08;21.45;;;13.50;99.90;;;;;;5029120;28;20205;-65
2024/03/10 15:02:48;;;;;;;26.30;20.73;;;13.50;99.90;;;;;;5032168;28;20583;-65
2024/03/10 15:05:15;;;;;;;28.15;21.88;;;13.30;99.90;;;;;;5028158;28;20589;-66
2024/03/10 15:07:44;;;;;;;31.00;21.67;;;13.20;99.90;;;;;;5026680;28;20307;-66
2024/03/10 15:10:13;;;;;;;28.73;22.02;;;13.00;99.90;;;;;;5028643;28;20232;-67
2024/03/10 15:12:40;;;;;;;29.63;22.70;;;13.00;99.90;;;;;;5033372;28;20197;-66